Hastings, NE

2:06 PM CST on February 10, 2016 (GMT -0600)
Hastings Municipal | | Change Station
CLOSE
Current Station
Airport
Location: Hastings,
Elevation: 1959 ft
Nearby Weather Stations

Elev 1959 ft 40.60 °N, 98.43 °W | Updated 13 minutes ago

Clear
Clear
45 °F
Feels Like 40 °F
N
9
Wind Variable Wind from West

Today
High -- | Low -- °F
--% Chance of Precip.
Yesterday
High -- | Low -- °F
Precip. -- in
Pressure 29.90 in
Visibility 10.0 miles
Clouds Clear
Windchill 40 °F
Dew Point 31 °F
Humidity 58%
Rainfall 0.00 in
Snow Depth Not available.
7:34 AM 6:02 PM
Waxing Crescent, 7% visible
METAR KHSI 101953Z AUTO 28008KT 10SM CLR 07/M01 A2986 RMK AO2 SLP124 T00721006
Pressure 29.90 in
Visibility 10.0 miles
Clouds Clear
Windchill 40 °F
Dew Point 31 °F
Humidity 58%
Rainfall 0.00 in
Snow Depth Not available.
7:34 AM 6:02 PM
Waxing Crescent, 7% visible
METAR KHSI 101953Z AUTO 28008KT 10SM CLR 07/M01 A2986 RMK AO2 SLP124 T00721006

10-Day Weather Forecast

Almanac

Astronomy

Feb. 10, 2016 Rise Set
Actual Time
Civil Twilight
Nautical Twilight
Astronomical Twilight
Moon
Length of Visible Light
Length of Day
Tomorrow will be .
, % of the Moon is Illuminated

Today's Extremes

State Highs State Lows

Community

WunderPhotos

Upload Photos

1,891,929 photos uploaded!

WunderBlog® & News

Nearby

Air Quality

  Air Quality AQ Index Pollutant
Not available.

Snow Depth

Station Depth Elevation

Earthquake Activity

City Distance Mag. Time & Date
Minimum magnitude displayed is 2.5.

Coastal Water Temperatures

Place Temperature

Stations

Nearby Weather Stations

Station Location Temp. Windchill Dew Point Humidity Wind Precip. Elev Updated Type
                   

Watches & Warnings

There are currently no watches in effect.